sensor_id;sensor_type;location;lat;lon;timestamp;pressure;altitude;pressure_sealevel;temperature;humidity
39309;BME280;26019;47.510;19.122;2022-09-09T00:07:21;99904.31;;;16.47;100.00
39309;BME280;26019;47.510;19.122;2022-09-09T00:27:47;99908.44;;;16.53;100.00
39309;BME280;26019;47.510;19.122;2022-09-09T00:37:52;99912.13;;;16.47;100.00
39309;BME280;26019;47.510;19.122;2022-09-09T00:47:55;99907.31;;;16.36;100.00
39309;BME280;26019;47.510;19.122;2022-09-09T00:57:58;99906.28;;;16.40;100.00
39309;BME280;26019;47.510;19.122;2022-09-09T01:08:05;99927.81;;;16.46;100.00
39309;BME280;26019;47.510;19.122;2022-09-09T01:18:12;99930.28;;;16.50;100.00
39309;BME280;26019;47.510;19.122;2022-09-09T01:28:27;99939.00;;;16.49;100.00
39309;BME280;26019;47.510;19.122;2022-09-09T01:38:32;99946.53;;;16.33;100.00
39309;BME280;26019;47.510;19.122;2022-09-09T01:48:36;99944.34;;;16.21;100.00
39309;BME280;26019;47.510;19.122;2022-09-09T01:59:13;99954.25;;;16.11;100.00
39309;BME280;26019;47.510;19.122;2022-09-09T02:09:21;99946.81;;;16.00;100.00
39309;BME280;26019;47.510;19.122;2022-09-09T02:19:33;99965.16;;;15.97;100.00
39309;BME280;26019;47.510;19.122;2022-09-09T02:29:42;99967.56;;;16.03;100.00
39309;BME280;26019;47.510;19.122;2022-09-09T02:39:44;99959.75;;;16.03;100.00
39309;BME280;26019;47.510;19.122;2022-09-09T02:59:57;99952.41;;;15.89;100.00
39309;BME280;26019;47.510;19.122;2022-09-09T03:09:59;99960.53;;;15.78;100.00
39309;BME280;26019;47.510;19.122;2022-09-09T03:20:02;99977.84;;;15.79;100.00
39309;BME280;26019;47.510;19.122;2022-09-09T03:30:04;99969.22;;;15.79;100.00
39309;BME280;26019;47.510;19.122;2022-09-09T03:40:07;99967.31;;;15.84;100.00
39309;BME280;26019;47.510;19.122;2022-09-09T03:50:10;99961.41;;;15.77;100.00
39309;BME280;26019;47.510;19.122;2022-09-09T04:00:12;99987.56;;;15.74;100.00
39309;BME280;26019;47.510;19.122;2022-09-09T04:10:14;99982.22;;;15.79;100.00
39309;BME280;26019;47.510;19.122;2022-09-09T04:20:17;99977.94;;;15.76;100.00
39309;BME280;26019;47.510;19.122;2022-09-09T04:30:21;99983.03;;;15.81;100.00
39309;BME280;26019;47.510;19.122;2022-09-09T04:40:23;99981.97;;;15.88;100.00
39309;BME280;26019;47.510;19.122;2022-09-09T04:50:25;99977.72;;;15.84;100.00
39309;BME280;26019;47.510;19.122;2022-09-09T05:00:27;99973.81;;;15.97;100.00
39309;BME280;26019;47.510;19.122;2022-09-09T05:10:31;99984.63;;;16.12;100.00
39309;BME280;26019;47.510;19.122;2022-09-09T05:20:41;99981.38;;;16.31;100.00
39309;BME280;26019;47.510;19.122;2022-09-09T05:30:43;99990.44;;;16.69;100.00
39309;BME280;26019;47.510;19.122;2022-09-09T05:40:49;99990.66;;;17.11;100.00
39309;BME280;26019;47.510;19.122;2022-09-09T05:50:54;99999.50;;;17.53;100.00
39309;BME280;26019;47.510;19.122;2022-09-09T06:01:16;99998.13;;;17.87;100.00
39309;BME280;26019;47.510;19.122;2022-09-09T06:11:20;100009.03;;;18.19;100.00
39309;BME280;26019;47.510;19.122;2022-09-09T06:21:33;100020.09;;;18.65;100.00
39309;BME280;26019;47.510;19.122;2022-09-09T06:31:36;100020.28;;;19.01;100.00
39309;BME280;26019;47.510;19.122;2022-09-09T06:41:38;100010.09;;;19.69;100.00
39309;BME280;26019;47.510;19.122;2022-09-09T06:51:41;100016.84;;;19.93;100.00
39309;BME280;26019;47.510;19.122;2022-09-09T07:01:51;100020.88;;;20.18;100.00
39309;BME280;26019;47.510;19.122;2022-09-09T07:11:56;100027.81;;;19.64;100.00
39309;BME280;26019;47.510;19.122;2022-09-09T07:22:00;100049.19;;;18.78;100.00
39309;BME280;26019;47.510;19.122;2022-09-09T07:32:04;100045.06;;;19.32;100.00
39309;BME280;26019;47.510;19.122;2022-09-09T07:42:06;100043.78;;;19.77;100.00
39309;BME280;26019;47.510;19.122;2022-09-09T07:52:08;100043.53;;;20.19;100.00
39309;BME280;26019;47.510;19.122;2022-09-09T08:02:10;100044.72;;;20.64;100.00
39309;BME280;26019;47.510;19.122;2022-09-09T08:12:12;100050.63;;;21.19;100.00
39309;BME280;26019;47.510;19.122;2022-09-09T08:22:16;100053.97;;;21.53;95.86
39309;BME280;26019;47.510;19.122;2022-09-09T08:32:18;100044.78;;;21.92;96.66
39309;BME280;26019;47.510;19.122;2022-09-09T08:42:30;100046.81;;;22.48;92.45
39309;BME280;26019;47.510;19.122;2022-09-09T08:52:57;100054.78;;;23.89;83.39
39309;BME280;26019;47.510;19.122;2022-09-09T09:13:53;100048.84;;;25.40;61.73
39309;BME280;26019;47.510;19.122;2022-09-09T09:24:00;100041.63;;;26.38;56.19
39309;BME280;26019;47.510;19.122;2022-09-09T09:34:02;100018.97;;;27.69;52.33
39309;BME280;26019;47.510;19.122;2022-09-09T09:44:05;100017.22;;;28.43;45.02
39309;BME280;26019;47.510;19.122;2022-09-09T10:04:22;100028.19;;;28.81;45.37
39309;BME280;26019;47.510;19.122;2022-09-09T10:14:33;100026.50;;;30.94;39.12
39309;BME280;26019;47.510;19.122;2022-09-09T10:35:11;100003.94;;;32.50;36.23
39309;BME280;26019;47.510;19.122;2022-09-09T10:45:29;100006.50;;;33.19;32.83
39309;BME280;26019;47.510;19.122;2022-09-09T10:55:40;100010.22;;;33.35;26.93
39309;BME280;26019;47.510;19.122;2022-09-09T11:05:49;99998.72;;;33.51;31.04
39309;BME280;26019;47.510;19.122;2022-09-09T11:16:04;99995.66;;;34.68;29.42
39309;BME280;26019;47.510;19.122;2022-09-09T11:26:13;99992.06;;;36.61;26.05
39309;BME280;26019;47.510;19.122;2022-09-09T11:46:58;99982.72;;;38.64;23.76
39309;BME280;26019;47.510;19.122;2022-09-09T11:57:01;99982.81;;;40.33;21.79
39309;BME280;26019;47.510;19.122;2022-09-09T12:27:26;99978.59;;;36.61;22.96
39309;BME280;26019;47.510;19.122;2022-09-09T12:37:44;99954.31;;;34.86;26.94
39309;BME280;26019;47.510;19.122;2022-09-09T12:48:10;99960.03;;;39.61;20.88
39309;BME280;26019;47.510;19.122;2022-09-09T12:58:19;99943.34;;;42.28;17.34
39309;BME280;26019;47.510;19.122;2022-09-09T13:08:22;99931.78;;;44.65;16.34
39309;BME280;26019;47.510;19.122;2022-09-09T13:18:44;99926.69;;;45.03;14.52
39309;BME280;26019;47.510;19.122;2022-09-09T13:28:47;99908.84;;;38.72;20.85
39309;BME280;26019;47.510;19.122;2022-09-09T13:48:55;99902.47;;;30.62;33.14
39309;BME280;26019;47.510;19.122;2022-09-09T13:58:58;99892.81;;;30.79;31.44
39309;BME280;26019;47.510;19.122;2022-09-09T14:09:00;99873.69;;;33.18;27.11
39309;BME280;26019;47.510;19.122;2022-09-09T14:19:02;99863.28;;;29.79;32.78
39309;BME280;26019;47.510;19.122;2022-09-09T14:29:03;99866.97;;;29.58;33.27
39309;BME280;26019;47.510;19.122;2022-09-09T14:39:07;99872.31;;;30.06;33.19
39309;BME280;26019;47.510;19.122;2022-09-09T14:49:09;99853.41;;;32.74;29.49
39309;BME280;26019;47.510;19.122;2022-09-09T14:59:12;99856.31;;;28.60;34.52
39309;BME280;26019;47.510;19.122;2022-09-09T15:09:15;99861.69;;;27.67;35.68
39309;BME280;26019;47.510;19.122;2022-09-09T15:19:18;99861.16;;;27.31;38.45
39309;BME280;26019;47.510;19.122;2022-09-09T15:29:20;99858.16;;;28.89;36.52
39309;BME280;26019;47.510;19.122;2022-09-09T15:39:22;99858.59;;;34.55;24.97
39309;BME280;26019;47.510;19.122;2022-09-09T15:49:25;99860.41;;;29.23;32.67
39309;BME280;26019;47.510;19.122;2022-09-09T15:59:29;99860.56;;;26.50;37.95
39309;BME280;26019;47.510;19.122;2022-09-09T16:09:32;99866.94;;;25.68;43.35
39309;BME280;26019;47.510;19.122;2022-09-09T16:19:34;99881.72;;;25.59;44.12
39309;BME280;26019;47.510;19.122;2022-09-09T16:29:36;99870.59;;;24.70;49.21
39309;BME280;26019;47.510;19.122;2022-09-09T16:39:38;99873.78;;;24.25;51.33
39309;BME280;26019;47.510;19.122;2022-09-09T16:49:40;99871.34;;;23.57;54.09
39309;BME280;26019;47.510;19.122;2022-09-09T16:59:41;99872.06;;;23.19;58.27
39309;BME280;26019;47.510;19.122;2022-09-09T17:09:44;99881.72;;;22.92;60.73
39309;BME280;26019;47.510;19.122;2022-09-09T17:19:53;99886.03;;;22.51;65.49
39309;BME280;26019;47.510;19.122;2022-09-09T17:29:55;99890.25;;;22.25;69.00
39309;BME280;26019;47.510;19.122;2022-09-09T17:39:56;99891.47;;;21.76;73.58
39309;BME280;26019;47.510;19.122;2022-09-09T17:49:59;99894.59;;;21.52;78.39
39309;BME280;26019;47.510;19.122;2022-09-09T18:00:06;99906.97;;;21.50;78.66
39309;BME280;26019;47.510;19.122;2022-09-09T18:10:09;99895.09;;;21.43;77.87
39309;BME280;26019;47.510;19.122;2022-09-09T18:20:10;99894.25;;;21.42;79.82
39309;BME280;26019;47.510;19.122;2022-09-09T18:30:12;99905.97;;;21.37;80.81
39309;BME280;26019;47.510;19.122;2022-09-09T18:40:15;99904.28;;;21.36;84.86
39309;BME280;26019;47.510;19.122;2022-09-09T18:50:17;99912.16;;;21.36;89.78
39309;BME280;26019;47.510;19.122;2022-09-09T19:00:21;99900.25;;;21.14;93.19
39309;BME280;26019;47.510;19.122;2022-09-09T19:10:27;99907.47;;;20.94;100.00
39309;BME280;26019;47.510;19.122;2022-09-09T19:20:31;99913.47;;;20.64;99.59
39309;BME280;26019;47.510;19.122;2022-09-09T19:30:33;99909.75;;;20.68;100.00
39309;BME280;26019;47.510;19.122;2022-09-09T19:40:38;99919.38;;;20.52;100.00
39309;BME280;26019;47.510;19.122;2022-09-09T19:50:40;99900.16;;;20.51;100.00
39309;BME280;26019;47.510;19.122;2022-09-09T20:00:51;99902.44;;;20.57;100.00
39309;BME280;26019;47.510;19.122;2022-09-09T20:10:56;99911.59;;;20.66;100.00
39309;BME280;26019;47.510;19.122;2022-09-09T20:21:04;99916.84;;;20.66;100.00
39309;BME280;26019;47.510;19.122;2022-09-09T20:31:09;99922.88;;;20.68;100.00
39309;BME280;26019;47.510;19.122;2022-09-09T20:41:13;99928.88;;;20.70;100.00
39309;BME280;26019;47.510;19.122;2022-09-09T20:51:18;99919.19;;;20.39;100.00
39309;BME280;26019;47.510;19.122;2022-09-09T21:01:20;99904.53;;;20.19;100.00
39309;BME280;26019;47.510;19.122;2022-09-09T21:11:23;99892.19;;;20.03;100.00
39309;BME280;26019;47.510;19.122;2022-09-09T21:21:26;99891.44;;;19.83;100.00
39309;BME280;26019;47.510;19.122;2022-09-09T21:31:28;99898.38;;;19.84;100.00
39309;BME280;26019;47.510;19.122;2022-09-09T21:41:32;99903.38;;;19.72;100.00
39309;BME280;26019;47.510;19.122;2022-09-09T21:51:37;99892.34;;;19.65;100.00
39309;BME280;26019;47.510;19.122;2022-09-09T22:01:40;99875.03;;;19.62;100.00
39309;BME280;26019;47.510;19.122;2022-09-09T22:11:42;99877.19;;;19.36;100.00
39309;BME280;26019;47.510;19.122;2022-09-09T22:21:44;99880.16;;;19.29;100.00
39309;BME280;26019;47.510;19.122;2022-09-09T22:31:47;99887.59;;;19.20;100.00
39309;BME280;26019;47.510;19.122;2022-09-09T22:41:48;99883.75;;;19.08;100.00
39309;BME280;26019;47.510;19.122;2022-09-09T22:51:50;99880.53;;;19.03;100.00
39309;BME280;26019;47.510;19.122;2022-09-09T23:01:52;99871.97;;;19.00;100.00
39309;BME280;26019;47.510;19.122;2022-09-09T23:11:54;99859.50;;;18.86;100.00
39309;BME280;26019;47.510;19.122;2022-09-09T23:22:01;99864.19;;;18.79;100.00
39309;BME280;26019;47.510;19.122;2022-09-09T23:32:04;99871.28;;;18.77;100.00
39309;BME280;26019;47.510;19.122;2022-09-09T23:42:10;99879.97;;;18.77;100.00
39309;BME280;26019;47.510;19.122;2022-09-09T23:52:12;99888.75;;;18.76;100.00
